Time;durP1;ratioP1;P1;durP2;ratioP2;P2;SDS_P1;SDS_P2;PMS_P1;PMS_P2;Temp;Humidity;BMP_temperature;BMP_pressure;BME280_temperature;BME280_humidity;BME280_pressure;Samples;Min_cycle;Max_cycle;Signal;HPM_P1;HPM_P2
2021/12/27 00:00:44;;;;;;;18.92;12.25;;;;;;;8.05;68.49;101150.22;5656490;23;20473;-96
2021/12/27 00:03:17;;;;;;;17.20;11.77;;;;;;;8.87;68.64;101297.38;4906775;29;20032;-94
2021/12/27 00:05:48;;;;;;;17.23;12.05;;;;;;;8.92;68.54;101305.50;4907589;29;20043;-94
2021/12/27 00:08:23;;;;;;;17.75;11.35;;;;;;;8.79;68.78;101284.63;4925386;29;20035;-93
2021/12/27 00:11:11;;;;;;;17.88;11.48;;;;;;;8.90;68.64;101308.00;4909820;29;20494;-94
2021/12/27 00:13:41;;;;;;;17.45;11.50;;;;;;;8.88;68.89;101312.19;4936709;29;20128;-95
2021/12/27 00:16:18;;;;;;;17.35;11.93;;;;;;;8.84;69.21;101307.56;4910826;29;20466;-95
2021/12/27 00:18:43;;;;;;;17.70;11.73;;;;;;;8.85;68.84;101314.59;4901601;29;20067;-95
2021/12/27 00:21:16;;;;;;;17.77;11.25;;;;;;;8.86;68.69;101303.38;4924731;29;20066;-94
2021/12/27 00:23:50;;;;;;;17.92;11.82;;;;;;;8.87;69.02;101309.47;4891407;29;20096;-95
2021/12/27 00:26:18;;;;;;;18.90;11.32;;;;;;;8.88;68.72;101296.56;4904379;29;20095;-96
2021/12/27 00:28:50;;;;;;;16.77;11.60;;;;;;;8.77;68.98;101282.81;4905626;29;20070;-96
2021/12/27 00:31:39;;;;;;;16.92;11.15;;;;;;;8.85;68.80;101304.19;4920739;29;20109;-95
2021/12/27 00:34:06;;;;;;;17.77;11.60;;;;;;;8.87;68.77;101301.66;4939149;29;20035;-96
2021/12/27 00:36:37;;;;;;;18.60;11.82;;;;;;;8.85;69.15;101301.56;4914068;29;20490;-93
2021/12/27 00:39:32;;;;;;;16.50;11.05;;;;;;;8.86;68.76;101295.56;4906708;29;20040;-96
2021/12/27 00:42:05;;;;;;;17.25;10.88;;;;;;;8.70;68.45;101262.34;4905337;29;20059;-95
2021/12/27 00:44:34;;;;;;;17.15;11.30;;;;;;;8.86;68.74;101298.16;4892031;29;20040;-95
2021/12/27 00:47:10;;;;;;;16.88;11.50;;;;;;;8.80;68.82;101292.53;4904563;29;20032;-95
2021/12/27 00:49:44;;;;;;;16.67;11.13;;;;;;;8.69;68.69;101270.06;4909473;29;20031;-95
2021/12/27 00:55:32;;;;;;;19.05;12.05;;;;;;;8.77;68.78;101281.91;4925188;29;20572;-94
2021/12/27 00:57:57;;;;;;;19.50;11.93;;;;;;;8.69;68.66;101270.06;4907691;29;20027;-94
2021/12/27 01:00:25;;;;;;;19.08;11.43;;;;;;;8.65;68.80;101268.03;4912066;29;20035;-93
2021/12/27 01:03:05;;;;;;;18.45;11.50;;;;;;;8.65;69.01;101265.44;4909813;29;20038;-95
2021/12/27 01:05:35;;;;;;;17.13;11.13;;;;;;;8.82;69.07;101297.84;4888149;29;20032;-95
2021/12/27 01:08:06;;;;;;;17.85;11.35;;;;;;;8.84;68.82;101297.16;4889065;29;20396;-95
2021/12/27 01:11:24;;;;;;;17.13;11.07;;;;;;;8.85;68.73;101285.94;4890121;29;20104;-96
2021/12/27 01:14:09;;;;;;;17.52;11.32;;;;;;;8.72;68.94;101263.38;4915404;29;20031;-95
2021/12/27 01:16:43;;;;;;;17.33;11.10;;;;;;;8.67;68.72;101253.41;4923415;29;20117;-95
2021/12/27 01:19:18;;;;;;;17.23;11.35;;;;;;;8.68;69.08;101268.25;4944092;29;20038;-95
2021/12/27 01:21:54;;;;;;;17.42;11.38;;;;;;;8.81;69.15;101286.53;4928725;29;20047;-92
2021/12/27 01:24:43;;;;;;;18.77;12.00;;;;;;;8.87;68.82;101293.84;4929171;29;20102;-95
2021/12/27 01:27:19;;;;;;;18.80;11.68;;;;;;;8.76;68.88;101280.09;4927933;29;20035;-96
2021/12/27 01:53:46;;;;;;;17.27;10.88;;;;;;;8.83;68.98;101278.84;4645954;23;20321;-93
2021/12/27 01:56:20;;;;;;;16.67;10.95;;;;;;;7.91;68.71;101111.94;4898962;29;20065;-95
2021/12/27 02:02:35;;;;;;;16.10;10.47;;;;;;;8.65;68.77;101242.88;4980567;23;20060;-94
2021/12/27 02:05:03;;;;;;;;;;;;;;;8.90;68.70;101283.66;4874326;29;20040;-95
2021/12/27 02:07:33;;;;;;;17.25;11.45;;;;;;;8.32;69.02;101189.38;4871422;29;19962;-96
2021/12/27 02:10:21;;;;;;;16.35;10.73;;;;;;;8.88;68.69;101272.22;4872441;29;20037;-94
2021/12/27 02:13:01;;;;;;;19.38;11.95;;;;;;;8.90;68.96;101281.06;4871235;29;20522;-96
2021/12/27 02:15:52;;;;;;;18.38;11.10;;;;;;;8.87;68.89;101265.19;4886516;29;20041;-94
2021/12/27 02:18:31;;;;;;;15.48;10.63;;;;;;;8.65;69.17;101223.78;4907371;29;20031;-96
2021/12/27 02:21:11;;;;;;;17.35;10.90;;;;;;;8.01;68.74;101111.81;4894680;29;20035;-96
2021/12/27 02:23:57;;;;;;;17.35;11.32;;;;;;;8.77;69.11;101253.28;4884703;29;20047;-93
2021/12/27 02:26:51;;;;;;;16.65;11.00;;;;;;;8.83;69.12;101253.69;4867244;29;20035;-94
2021/12/27 02:29:17;;;;;;;16.80;11.25;;;;;;;8.51;68.87;101200.31;4873135;29;20573;-94
2021/12/27 02:32:01;;;;;;;16.25;11.13;;;;;;;8.59;69.07;101215.53;4884579;29;20039;-89
2021/12/27 02:34:29;;;;;;;17.08;11.00;;;;;;;8.67;68.84;101237.81;4868029;29;20403;-93
2021/12/27 02:37:41;;;;;;;17.77;11.50;;;;;;;8.84;69.08;101270.22;4884657;29;20035;-93
2021/12/27 02:40:08;;;;;;;17.55;11.32;;;;;;;8.69;68.99;101236.22;4916001;29;20195;-92
2021/12/27 02:42:35;;;;;;;18.05;11.10;;;;;;;8.64;68.95;101228.09;4883298;29;20119;-92
2021/12/27 02:45:16;;;;;;;17.00;11.15;;;;;;;8.69;68.74;101234.50;4876305;29;20107;-93
2021/12/27 02:47:56;;;;;;;17.15;11.07;;;;;;;8.75;68.89;101244.44;4901094;29;20495;-93
2021/12/27 02:50:45;;;;;;;18.42;11.75;;;;;;;8.86;69.10;101248.69;4884933;29;20032;-93
2021/12/27 02:56:34;;;;;;;16.85;10.98;;;;;;;8.78;69.12;101247.25;4917387;29;20054;-92
2021/12/27 02:59:01;;;;;;;16.67;11.25;;;;;;;8.69;69.02;101231.00;4884436;29;20438;-92
2021/12/27 03:01:54;;;;;;;15.98;11.13;;;;;;;8.81;69.34;101242.25;4879545;29;20047;-93
2021/12/27 03:04:55;;;;;;;16.15;10.82;;;;;;;8.83;68.95;101243.28;4876781;29;20033;-92
2021/12/27 03:08:14;;;;;;;15.95;11.18;;;;;;;8.86;68.83;101238.25;4885313;29;20041;-93
2021/12/27 03:11:09;;;;;;;17.23;11.27;;;;;;;8.88;68.74;101235.78;4885272;29;20032;-94
2021/12/27 03:13:38;;;;;;;16.60;10.65;;;;;;;8.84;69.09;101234.66;4892759;29;20047;-93
2021/12/27 03:19:25;;;;;;;16.17;10.48;;;;;;;8.51;68.87;101191.59;4879609;29;20047;-93
2021/12/27 03:22:20;;;;;;;17.27;11.05;;;;;;;8.82;69.22;101241.44;4863291;29;20411;-91
2021/12/27 03:24:46;;;;;;;16.95;11.10;;;;;;;8.67;68.67;101201.34;4886109;29;20041;-88
2021/12/27 03:27:12;;;;;;;17.23;11.38;;;;;;;8.76;69.00;101217.59;4865931;29;20407;-89
2021/12/27 03:29:43;;;;;;;16.00;11.48;;;;;;;8.72;68.98;101219.09;4878498;29;20048;-90
2021/12/27 03:32:09;;;;;;;15.82;10.77;;;;;;;8.68;68.86;101204.06;4881607;29;20724;-91
2021/12/27 03:34:52;;;;;;;16.00;10.90;;;;;;;8.84;68.82;101238.97;4879158;29;20037;-90
2021/12/27 03:37:25;;;;;;;16.42;10.98;;;;;;;8.68;68.98;101222.28;4864574;29;20566;-92
2021/12/27 03:40:02;;;;;;;17.35;11.18;;;;;;;8.88;68.87;101246.19;4878183;29;20495;-92
2021/12/27 03:42:50;;;;;;;16.02;10.40;;;;;;;8.86;68.87;101248.69;4879250;29;20061;-92
2021/12/27 03:48:38;;;;;;;17.23;11.02;;;;;;;8.67;69.17;101214.38;4887500;29;20043;-94
2021/12/27 03:51:56;;;;;;;16.50;11.05;;;;;;;8.86;69.13;101246.06;4881298;29;20033;-94
2021/12/27 03:54:52;;;;;;;17.55;11.32;;;;;;;8.83;69.07;101251.09;4898370;29;20049;-96
2021/12/27 03:57:31;;;;;;;16.25;10.55;;;;;;;8.61;68.83;101214.84;4885406;29;20068;-93
2021/12/27 04:02:59;;;;;;;14.18;10.25;;;;;;;8.84;69.00;101251.97;4881217;29;20123;-95
2021/12/27 04:05:32;;;;;;;15.95;10.73;;;;;;;8.70;68.92;101231.13;4881230;29;20036;-93
2021/12/27 04:21:43;;;;;;;16.13;10.50;;;;;;;8.76;69.06;101243.63;4898089;29;20127;-92
2021/12/27 04:24:43;;;;;;;16.50;10.63;;;;;;;8.81;69.09;101251.78;4884074;29;20037;-94
2021/12/27 04:27:13;;;;;;;14.93;10.13;;;;;;;8.80;68.80;101258.66;4885320;29;20036;-94
2021/12/27 04:29:55;;;;;;;16.40;10.70;;;;;;;8.65;69.19;101235.09;4900214;29;20494;-95
2021/12/27 04:32:22;;;;;;;16.60;10.35;;;;;;;8.65;68.86;101234.19;4869185;29;20033;-95
2021/12/27 04:34:52;;;;;;;16.55;10.77;;;;;;;8.83;69.13;101271.03;4867611;29;20041;-95
2021/12/27 04:40:52;;;;;;;14.70;10.73;;;;;;;8.64;69.07;101224.59;4900052;29;20056;-93
2021/12/27 04:43:21;;;;;;;16.58;11.05;;;;;;;8.64;68.73;101216.78;4877936;29;20037;-94
2021/12/27 04:45:55;;;;;;;16.38;10.48;;;;;;;8.67;69.35;101220.47;4885859;29;20111;-94
2021/12/27 04:51:46;;;;;;;16.60;10.70;;;;;;;8.67;68.98;101215.25;4888474;29;20168;-91
2021/12/27 04:55:05;;;;;;;16.13;10.95;;;;;;;8.82;69.19;101244.06;4889924;29;20029;-92
2021/12/27 04:57:41;;;;;;;16.45;11.15;;;;;;;8.79;69.05;101251.66;4881710;29;20619;-95
2021/12/27 05:00:08;;;;;;;16.05;10.38;;;;;;;8.62;68.86;101226.19;4901099;29;20036;-95
2021/12/27 05:02:48;;;;;;;15.40;10.02;;;;;;;8.81;68.90;101257.88;4884690;29;20049;-96
2021/12/27 05:05:32;;;;;;;15.38;10.43;;;;;;;8.71;68.94;101248.53;4904640;29;20029;-95
2021/12/27 05:08:03;;;;;;;15.95;10.30;;;;;;;8.79;69.21;101262.09;4910659;29;20393;-96
2021/12/27 05:10:31;;;;;;;15.52;10.45;;;;;;;8.81;69.19;101264.81;4895283;29;20052;-96
2021/12/27 05:13:24;;;;;;;16.75;10.35;;;;;;;8.85;69.23;101264.22;4891949;29;20040;-94
2021/12/27 05:16:24;;;;;;;16.08;10.50;;;;;;;8.83;68.93;101260.59;4885758;29;20024;-94
2021/12/27 05:19:10;;;;;;;17.17;10.75;;;;;;;8.81;69.38;101263.09;4879787;29;20040;-94
2021/12/27 05:21:35;;;;;;;16.35;10.38;;;;;;;8.74;69.25;101260.84;4900236;29;20136;-95
2021/12/27 05:24:06;;;;;;;14.80;10.48;;;;;;;8.77;69.12;101272.38;4895078;29;20041;-90
2021/12/27 05:26:33;;;;;;;15.63;10.48;;;;;;;8.83;69.00;101278.84;4897066;29;20084;-92
2021/12/27 05:29:03;;;;;;;16.98;10.85;;;;;;;8.45;68.97;101212.00;4883609;29;20739;-91
2021/12/27 05:31:40;;;;;;;15.80;10.60;;;;;;;8.79;69.07;101272.50;4866146;29;20430;-93
2021/12/27 05:34:11;;;;;;;16.90;11.00;;;;;;;8.64;69.29;101243.72;4883089;29;20131;-91
2021/12/27 05:36:56;;;;;;;16.77;10.10;;;;;;;8.79;69.18;101267.28;4892612;29;20098;-91
2021/12/27 05:39:22;;;;;;;16.63;10.65;;;;;;;8.66;68.95;101236.91;4881651;29;20077;-91
2021/12/27 05:41:52;;;;;;;;;;;;;;;8.83;69.17;101258.91;4888123;29;20033;-90
2021/12/27 05:44:28;;;;;;;15.48;10.30;;;;;;;8.74;69.10;101253.97;4876009;29;20350;-91
2021/12/27 05:46:56;;;;;;;14.45;10.20;;;;;;;8.63;69.13;101239.28;4912341;29;20029;-93
2021/12/27 05:49:22;;;;;;;15.82;10.70;;;;;;;8.77;69.04;101256.75;4897602;29;20191;-89
2021/12/27 05:51:49;;;;;;;15.40;10.35;;;;;;;8.79;68.92;101258.59;4884907;29;20099;-90
2021/12/27 05:54:16;;;;;;;15.80;10.55;;;;;;;8.48;69.31;101213.09;4893581;29;20537;-88
2021/12/27 05:56:43;;;;;;;17.65;11.30;;;;;;;8.50;69.73;101228.81;4884715;29;20047;-88
2021/12/27 05:59:12;;;;;;;16.33;10.55;;;;;;;8.68;69.18;101245.72;4892641;29;20036;-89
2021/12/27 06:01:38;;;;;;;17.00;11.65;;;;;;;8.62;70.23;101260.91;4877512;29;20117;-90
2021/12/27 06:04:04;;;;;;;15.55;11.10;;;;;;;8.78;69.49;101268.06;4882639;29;20025;-87
2021/12/27 06:06:30;;;;;;;18.05;12.05;;;;;;;8.81;69.42;101257.88;4886417;29;20100;-88
2021/12/27 06:08:57;;;;;;;17.48;11.50;;;;;;;8.68;69.04;101231.81;4880957;29;20033;-90
2021/12/27 06:11:23;;;;;;;19.17;13.30;;;;;;;8.40;69.34;101193.41;4887756;29;20029;-89
2021/12/27 06:13:52;;;;;;;18.73;11.55;;;;;;;8.41;69.09;101200.47;4888405;29;20029;-91
2021/12/27 06:16:20;;;;;;;16.48;10.65;;;;;;;8.62;68.98;101234.00;4870557;29;20039;-89
2021/12/27 06:18:47;;;;;;;15.35;10.57;;;;;;;8.70;69.22;101262.34;4870547;29;20042;-89
2021/12/27 06:21:12;;;;;;;;;;;;;;;8.85;69.19;101265.13;4886259;29;20060;-90
2021/12/27 06:23:41;;;;;;;18.58;11.38;;;;;;;8.74;69.11;101259.19;4886261;29;19930;-90
2021/12/27 06:26:07;;;;;;;18.00;11.98;;;;;;;8.58;69.06;101230.25;4896565;29;20033;-91
2021/12/27 06:28:34;;;;;;;17.15;11.85;;;;;;;8.73;69.33;101262.56;4896708;29;20025;-89
2021/12/27 06:31:01;;;;;;;20.73;12.85;;;;;;;8.50;69.21;101221.00;4872571;29;20041;-89
2021/12/27 06:33:30;;;;;;;24.20;14.05;;;;;;;8.68;69.19;101253.53;4879234;29;20084;-89
2021/12/27 06:35:57;;;;;;;24.17;13.98;;;;;;;8.51;69.27;101235.84;4885005;29;20174;-91
2021/12/27 06:38:35;;;;;;;26.48;14.32;;;;;;;8.79;69.19;101279.41;4881461;29;20033;-90
2021/12/27 06:41:04;;;;;;;26.50;14.40;;;;;;;8.57;69.50;101238.84;4888894;29;20033;-90
2021/12/27 06:43:34;;;;;;;18.70;11.93;;;;;;;8.55;69.59;101232.63;4885745;29;20047;-91
2021/12/27 06:46:03;;;;;;;15.77;10.65;;;;;;;8.77;69.40;101264.56;4881416;29;20037;-90
2021/12/27 06:48:33;;;;;;;17.55;11.38;;;;;;;8.77;69.31;101264.56;4877264;29;20048;-89
2021/12/27 06:51:00;;;;;;;17.00;11.07;;;;;;;8.64;69.40;101238.50;4894284;29;20036;-90
2021/12/27 06:53:30;;;;;;;16.58;11.25;;;;;;;8.79;69.26;101267.28;4862268;29;20047;-89
2021/12/27 06:55:57;;;;;;;16.42;11.13;;;;;;;8.79;69.20;101267.28;4864780;29;20040;-90
2021/12/27 06:58:23;;;;;;;17.55;11.00;;;;;;;8.52;69.22;101222.91;4862984;29;20488;-89
2021/12/27 07:00:50;;;;;;;18.05;11.32;;;;;;;8.81;69.23;101267.41;4881812;29;20053;-89
2021/12/27 07:03:17;;;;;;;15.63;10.63;;;;;;;8.54;69.17;101226.53;4882983;29;20033;-90
2021/12/27 07:05:46;;;;;;;14.27;10.35;;;;;;;8.40;69.13;101201.22;4880714;29;20507;-89
2021/12/27 07:08:11;;;;;;;15.60;10.40;;;;;;;8.66;69.42;101243.81;4893552;29;20524;-87
2021/12/27 07:10:40;;;;;;;15.45;10.57;;;;;;;8.43;69.28;101204.06;4893750;29;20104;-90
2021/12/27 07:13:09;;;;;;;16.45;10.85;;;;;;;8.76;69.26;101265.38;4868558;29;20504;-90
2021/12/27 07:15:41;;;;;;;16.52;10.45;;;;;;;8.70;69.10;101251.00;4878147;29;20112;-89
2021/12/27 07:18:23;;;;;;;17.05;10.88;;;;;;;8.65;69.23;101245.50;4862894;29;20033;-90
2021/12/27 07:20:51;;;;;;;16.33;10.75;;;;;;;8.60;69.36;101239.09;4862814;29;20152;-90
2021/12/27 07:23:19;;;;;;;15.82;10.23;;;;;;;8.63;69.70;101241.88;4893415;29;20060;-90
2021/12/27 07:25:45;;;;;;;16.40;10.90;;;;;;;8.76;69.28;101262.78;4894602;29;20037;-88
2021/12/27 07:28:12;;;;;;;15.15;10.35;;;;;;;8.63;69.14;101241.00;4895756;29;20044;-89
2021/12/27 07:30:39;;;;;;;15.35;10.15;;;;;;;8.77;69.32;101264.56;4895613;29;20067;-89
2021/12/27 07:33:06;;;;;;;16.98;10.57;;;;;;;8.77;69.24;101267.19;4895735;29;20032;-89
2021/12/27 07:35:33;;;;;;;14.25;10.43;;;;;;;8.80;69.24;101268.19;4880156;29;20060;-89
2021/12/27 07:38:05;;;;;;;13.82;9.75;;;;;;;8.89;69.02;101256.72;4877833;29;20438;-89
2021/12/27 07:40:31;;;;;;;15.02;10.18;;;;;;;8.62;69.20;101224.47;4895754;29;20407;-89
2021/12/27 07:42:57;;;;;;;14.32;9.80;;;;;;;8.62;68.91;101232.28;4871498;29;20029;-89
2021/12/27 07:45:25;;;;;;;15.10;10.38;;;;;;;8.87;69.13;101273.94;4877308;29;20048;-89
2021/12/27 07:47:51;;;;;;;15.48;9.75;;;;;;;8.64;68.78;101235.91;4874187;29;20546;-90
2021/12/27 07:50:21;;;;;;;14.90;9.82;;;;;;;8.74;68.73;101248.75;4862219;29;20040;-89
2021/12/27 07:52:46;;;;;;;13.93;9.57;;;;;;;8.82;68.89;101264.88;4890776;29;20107;-90
2021/12/27 07:55:14;;;;;;;13.60;9.75;;;;;;;8.55;68.72;101217.94;4895294;29;20507;-90
2021/12/27 07:57:48;;;;;;;14.20;10.05;;;;;;;8.86;68.94;101269.50;4867951;29;20061;-89
2021/12/27 08:00:19;;;;;;;14.25;9.63;;;;;;;8.83;69.17;101265.81;4877334;29;20177;-90
2021/12/27 08:02:51;;;;;;;14.18;9.13;;;;;;;8.87;69.38;101275.63;4909639;29;20049;-91
2021/12/27 08:05:18;;;;;;;12.40;8.93;;;;;;;8.76;69.33;101261.84;4877019;29;20029;-90
2021/12/27 08:07:51;;;;;;;14.48;9.52;;;;;;;8.67;69.23;101240.41;4879554;29;20099;-90
2021/12/27 08:10:22;;;;;;;13.27;9.65;;;;;;;8.77;69.22;101258.47;4883294;29;20032;-90
2021/12/27 08:12:56;;;;;;;11.95;9.30;;;;;;;8.66;69.12;101231.69;4895678;29;20561;-91
2021/12/27 08:15:23;;;;;;;13.95;9.50;;;;;;;8.86;69.37;101264.31;4896231;29;20085;-90
2021/12/27 08:18:21;;;;;;;14.05;9.60;;;;;;;8.87;69.32;101255.72;4895498;29;20056;-92
2021/12/27 08:20:56;;;;;;;14.60;9.27;;;;;;;8.68;69.40;101218.78;4890429;29;20488;-88
2021/12/27 08:23:40;;;;;;;14.10;9.63;;;;;;;8.74;69.05;101229.59;4877099;29;20490;-91
2021/12/27 08:26:16;;;;;;;13.00;9.52;;;;;;;8.91;69.03;101249.91;4893413;29;20149;-90
2021/12/27 08:28:44;;;;;;;14.32;9.38;;;;;;;8.91;69.04;101249.91;4880331;29;20035;-90
2021/12/27 08:31:22;;;;;;;14.02;9.10;;;;;;;8.88;68.94;101239.25;4895638;29;20033;-91
2021/12/27 08:33:49;;;;;;;12.05;9.07;;;;;;;8.64;68.86;101194.25;4897418;29;20582;-91
2021/12/27 08:36:23;;;;;;;13.52;9.45;;;;;;;8.56;68.93;101178.09;4895909;29;20091;-91
2021/12/27 08:38:50;;;;;;;12.88;9.07;;;;;;;8.94;68.79;101247.50;4873864;29;20039;-91
2021/12/27 08:41:28;;;;;;;13.35;9.55;;;;;;;8.94;68.62;101231.88;4896363;29;20059;-92
2021/12/27 08:47:16;;;;;;;13.27;9.00;;;;;;;8.63;68.90;101174.19;4897171;29;20037;-92
2021/12/27 08:49:44;;;;;;;14.45;9.57;;;;;;;8.16;68.77;101093.75;4881230;29;20025;-87
2021/12/27 08:52:15;;;;;;;12.55;8.48;;;;;;;9.05;68.48;101231.69;4883220;29;20028;-91
2021/12/27 08:54:41;;;;;;;13.00;9.27;;;;;;;8.22;68.29;101083.78;4897724;29;20032;-92
2021/12/27 08:57:14;;;;;;;;;;;;;;;9.10;68.29;101217.28;4883933;29;20037;-90
2021/12/27 08:59:46;;;;;;;11.95;8.63;;;;;;;8.04;68.33;101041.78;4893745;29;19922;-91
2021/12/27 09:02:49;;;;;;;13.38;9.52;;;;;;;9.03;68.89;101218.56;4898637;29;20052;-90
2021/12/27 09:05:39;;;;;;;14.20;9.30;;;;;;;9.03;68.79;101212.47;4898797;29;20100;-91
2021/12/27 09:08:12;;;;;;;13.07;9.35;;;;;;;8.85;68.25;101173.97;4898608;29;20056;-88
2021/12/27 09:10:43;;;;;;;11.95;8.88;;;;;;;8.96;68.60;101204.22;4879548;29;20036;-90
2021/12/27 09:13:12;;;;;;;12.40;8.85;;;;;;;8.86;68.50;101173.16;4896314;29;20040;-91
2021/12/27 09:15:37;;;;;;;12.45;9.15;;;;;;;8.46;68.35;101104.47;4882030;29;20033;-88
2021/12/27 09:18:32;;;;;;;12.40;8.82;;;;;;;9.04;68.70;101201.22;4882978;29;20040;-91
2021/12/27 09:21:22;;;;;;;12.63;8.80;;;;;;;9.06;68.54;101195.34;4866586;29;20037;-90
2021/12/27 09:24:00;;;;;;;13.27;8.85;;;;;;;8.93;68.62;101164.03;4882952;29;20045;-91
2021/12/27 09:26:44;;;;;;;12.35;8.95;;;;;;;9.13;68.13;101175.81;4899724;29;20060;-91
2021/12/27 09:29:16;;;;;;;12.20;8.85;;;;;;;8.92;68.45;101136.22;4898362;29;20123;-91
2021/12/27 09:31:52;;;;;;;13.88;9.43;;;;;;;8.89;68.36;101154.22;4898531;29;20063;-91
2021/12/27 09:37:40;;;;;;;13.85;9.73;;;;;;;8.83;68.27;101123.47;4892811;29;20132;-91
2021/12/27 09:40:10;;;;;;;12.93;8.98;;;;;;;9.08;68.62;101170.28;4896031;29;20503;-89
2021/12/27 09:42:36;;;;;;;13.52;9.68;;;;;;;9.08;68.62;101169.38;4882396;29;20108;-89
2021/12/27 09:45:06;;;;;;;15.20;9.48;;;;;;;8.96;69.10;101175.56;4882593;29;20032;-90
2021/12/27 09:47:55;;;;;;;14.48;9.63;;;;;;;9.04;69.07;101164.75;4898190;29;20028;-90
2021/12/27 09:53:42;;;;;;;13.07;9.27;;;;;;;8.59;70.17;101122.72;4880221;29;20048;-90
2021/12/27 09:56:16;;;;;;;14.90;9.52;;;;;;;8.54;69.88;101093.78;4870943;29;20423;-90
2021/12/27 09:58:48;;;;;;;12.73;9.05;;;;;;;8.64;69.51;101117.84;4880144;29;20044;-90
2021/12/27 10:01:14;;;;;;;13.63;9.25;;;;;;;9.02;69.21;101151.66;4879415;29;20052;-89
2021/12/27 10:03:50;;;;;;;11.82;8.68;;;;;;;9.12;68.92;101147.94;4894286;29;20032;-91
2021/12/27 10:06:19;;;;;;;14.45;9.20;;;;;;;8.93;69.24;101127.59;4897109;29;20503;-91
2021/12/27 10:08:59;;;;;;;13.85;9.27;;;;;;;9.03;69.25;101142.13;4897124;29;20033;-91
2021/12/27 10:11:31;;;;;;;13.25;9.07;;;;;;;8.92;68.97;101113.66;4881793;29;20028;-92
2021/12/27 10:14:13;;;;;;;13.52;9.23;;;;;;;8.61;69.77;101100.31;4875338;29;20048;-92
2021/12/27 10:17:18;;;;;;;13.32;8.95;;;;;;;8.93;69.77;101141.53;4895713;29;20481;-92
2021/12/27 10:19:52;;;;;;;13.63;8.95;;;;;;;8.84;69.33;101094.03;4897616;29;20040;-92
2021/12/27 10:22:24;;;;;;;12.30;8.95;;;;;;;8.39;69.26;101027.66;4877876;29;20123;-90
2021/12/27 10:25:24;;;;;;;11.75;8.90;;;;;;;9.02;69.49;101124.72;4895658;29;20032;-91
2021/12/27 10:27:55;;;;;;;10.90;8.07;;;;;;;8.89;69.42;101113.47;4879840;29;20028;-90
2021/12/27 10:30:24;;;;;;;11.35;8.80;;;;;;;8.74;69.72;101084.72;4887348;29;20123;-91
2021/12/27 10:33:23;;;;;;;11.85;8.50;;;;;;;8.94;69.76;101109.47;4897135;29;20033;-91
2021/12/27 10:35:58;;;;;;;12.52;8.70;;;;;;;8.89;69.97;101107.34;4896415;29;20040;-92
2021/12/27 10:38:40;;;;;;;11.38;8.13;;;;;;;8.69;70.22;101075.69;4897401;29;20029;-89
2021/12/27 10:41:12;;;;;;;10.57;7.95;;;;;;;8.69;70.15;101067.88;4881967;29;20063;-91
2021/12/27 10:43:56;;;;;;;11.27;8.50;;;;;;;8.55;70.37;101060.84;4897234;29;20029;-92
2021/12/27 10:46:25;;;;;;;11.63;8.50;;;;;;;8.81;70.26;101091.22;4897285;29;20479;-92
2021/12/27 10:48:59;;;;;;;12.38;8.98;;;;;;;8.55;70.17;101032.22;4896976;29;20080;-90
2021/12/27 10:51:29;;;;;;;11.35;8.65;;;;;;;8.63;69.92;101040.53;4881451;29;20032;-90
2021/12/27 10:54:00;;;;;;;12.85;8.40;;;;;;;8.78;70.57;101096.22;4881292;29;20092;-88
2021/12/27 10:57:02;;;;;;;12.30;8.40;;;;;;;8.86;70.63;101088.91;4893041;29;20108;-92
2021/12/27 10:59:28;;;;;;;12.40;8.70;;;;;;;8.90;69.79;101060.56;4878410;29;20037;-91
2021/12/27 11:01:54;;;;;;;11.82;8.40;;;;;;;8.85;70.30;101068.91;4892777;29;20054;-92
2021/12/27 11:04:21;;;;;;;12.70;8.80;;;;;;;8.80;70.61;101076.38;4916830;29;20036;-92
2021/12/27 11:06:58;;;;;;;12.00;8.13;;;;;;;8.69;70.40;101036.63;4872647;29;20025;-91
2021/12/27 11:09:26;;;;;;;11.60;8.25;;;;;;;8.91;70.40;101077.09;4884168;29;20124;-93
2021/12/27 11:11:54;;;;;;;13.48;8.70;;;;;;;8.40;70.53;100986.94;4883949;29;20024;-93
2021/12/27 11:14:24;;;;;;;11.45;8.10;;;;;;;8.62;70.67;101036.16;4879940;29;20040;-91
2021/12/27 11:17:06;;;;;;;12.23;8.55;;;;;;;8.90;70.49;101072.69;4874273;29;20047;-90
2021/12/27 11:19:44;;;;;;;12.73;8.93;;;;;;;8.33;70.48;100970.91;4865981;29;20043;-91
2021/12/27 11:22:11;;;;;;;10.05;7.75;;;;;;;8.40;70.47;100982.63;4865769;29;20414;-91
2021/12/27 11:24:42;;;;;;;11.50;8.25;;;;;;;9.01;70.09;101065.59;4893977;29;20032;-91
2021/12/27 11:27:15;;;;;;;11.63;8.20;;;;;;;8.84;70.51;101044.53;4882953;29;20483;-90
2021/12/27 11:30:04;;;;;;;10.85;7.85;;;;;;;8.88;70.13;101024.81;4898689;29;20028;-91
2021/12/27 11:32:33;;;;;;;11.45;8.00;;;;;;;8.96;70.53;101041.84;4883706;29;20044;-92
2021/12/27 11:35:09;;;;;;;11.20;7.72;;;;;;;8.77;70.14;101006.78;4898704;29;20570;-91
2021/12/27 11:37:40;;;;;;;10.82;8.07;;;;;;;8.77;70.09;100985.97;4900000;29;20036;-91
2021/12/27 11:40:19;;;;;;;11.20;7.95;;;;;;;8.74;69.78;100983.19;4899559;29;20035;-90
2021/12/27 11:42:58;;;;;;;10.55;8.25;;;;;;;9.11;69.92;101039.31;4915976;29;20032;-90
2021/12/27 11:45:43;;;;;;;10.57;7.88;;;;;;;9.13;70.00;101041.22;4883580;29;20099;-88
2021/12/27 11:48:13;;;;;;;10.82;7.50;;;;;;;8.75;69.89;100971.94;4898815;29;20039;-90
2021/12/27 11:50:57;;;;;;;11.95;7.82;;;;;;;9.12;70.21;101030.69;4915282;29;20042;-90
2021/12/27 11:53:32;;;;;;;9.75;7.25;;;;;;;9.17;69.96;101035.41;4915401;29;20498;-89
2021/12/27 11:56:04;;;;;;;10.68;7.80;;;;;;;9.03;70.23;101019.69;4915734;29;20038;-89
2021/12/27 11:58:35;;;;;;;10.52;7.63;;;;;;;9.12;69.89;101020.28;4887600;29;20037;-89
2021/12/27 12:01:26;;;;;;;11.65;8.50;;;;;;;9.11;70.17;101013.28;4908319;29;20028;-90
2021/12/27 12:04:00;;;;;;;9.88;7.75;;;;;;;8.90;70.29;100989.34;4898313;29;20040;-89
2021/12/27 12:06:38;;;;;;;10.50;7.50;;;;;;;9.30;69.42;101024.06;4915336;29;20032;-89
2021/12/27 12:09:15;;;;;;;11.38;8.07;;;;;;;9.01;69.77;101006.56;4905734;29;20072;-89
2021/12/27 12:11:43;;;;;;;11.38;7.75;;;;;;;9.00;70.02;101001.28;4915174;29;20053;-90
2021/12/27 12:14:45;;;;;;;10.68;8.00;;;;;;;9.29;69.20;101023.94;4882996;29;20100;-90
2021/12/27 12:17:16;;;;;;;11.55;7.88;;;;;;;9.30;69.70;101034.47;4808557;29;20070;-90
2021/12/27 12:19:44;;;;;;;10.65;7.72;;;;;;;9.16;69.24;101001.44;4885899;29;20064;-90
2021/12/27 12:22:31;;;;;;;11.25;8.35;;;;;;;9.40;69.04;101027.22;4888792;29;20107;-89
2021/12/27 12:25:22;;;;;;;12.38;8.38;;;;;;;9.40;68.87;101025.53;4916827;29;20175;-90
2021/12/27 12:27:53;;;;;;;9.20;7.22;;;;;;;9.26;69.46;101024.66;4886827;29;20036;-88
2021/12/27 12:30:19;;;;;;;10.48;7.72;;;;;;;9.24;69.24;101005.41;4902749;29;20119;-89
2021/12/27 12:33:04;;;;;;;11.88;8.07;;;;;;;9.47;69.05;101021.59;4886944;29;20028;-89
2021/12/27 12:35:43;;;;;;;11.18;8.15;;;;;;;9.34;69.23;101028.66;4902202;29;20044;-89
2021/12/27 12:38:21;;;;;;;11.85;7.82;;;;;;;9.44;69.12;101029.22;4886318;29;20036;-89
2021/12/27 12:41:13;;;;;;;10.90;7.38;;;;;;;9.43;68.95;101020.50;4902094;29;20068;-89
2021/12/27 12:43:59;;;;;;;10.32;7.57;;;;;;;9.10;68.76;100967.16;4902044;29;20538;-90
2021/12/27 12:46:36;;;;;;;12.40;8.02;;;;;;;9.46;68.96;101023.31;4887107;29;20039;-90
2021/12/27 12:49:08;;;;;;;;;;;;;;;9.51;68.99;101021.00;4887709;29;20111;-90
2021/12/27 12:51:49;;;;;;;11.57;7.63;;;;;;;9.17;68.98;100953.75;4914101;29;20014;-90
2021/12/27 12:54:39;;;;;;;10.07;7.88;;;;;;;9.48;68.56;101012.97;4884203;29;20507;-91
2021/12/27 12:57:09;;;;;;;12.75;8.05;;;;;;;9.05;68.86;100938.22;4885684;29;20094;-91
2021/12/27 12:59:58;;;;;;;11.73;7.63;;;;;;;9.60;68.66;101012.84;4901512;29;20031;-91
2021/12/27 13:02:29;;;;;;;10.73;7.88;;;;;;;9.46;68.70;100985.91;4878773;29;20043;-90
2021/12/27 13:05:22;;;;;;;10.73;7.85;;;;;;;9.55;68.55;101016.06;4884918;29;20020;-92
2021/12/27 13:07:53;;;;;;;10.68;7.60;;;;;;;9.51;68.90;101016.69;4916920;29;20059;-90
2021/12/27 13:10:50;;;;;;;11.38;7.75;;;;;;;9.52;68.80;101000.22;4897029;29;20032;-89
2021/12/27 13:13:18;;;;;;;10.50;7.78;;;;;;;9.56;68.56;101014.34;4899807;29;20135;-89